Time;durP1;ratioP1;P1;durP2;ratioP2;P2;SDS_P1;SDS_P2;PMS_P1;PMS_P2;Temp;Humidity;BMP_temperature;BMP_pressure;BME280_temperature;BME280_humidity;BME280_pressure;Samples;Min_cycle;Max_cycle;Signal;HPM_P1;HPM_P2
2022/03/25 00:01:57;;;;;;;32.70;11.00;;;4.60;99.90;;;;;;5122040;27;20032;-65
2022/03/25 00:04:23;;;;;;;26.33;9.32;;;4.50;99.90;;;;;;5124260;27;20080;-65
2022/03/25 00:06:48;;;;;;;23.77;10.93;;;4.50;99.90;;;;;;5095214;27;20019;-65
2022/03/25 00:09:14;;;;;;;35.03;11.20;;;4.40;99.90;;;;;;5108232;27;20027;-65
2022/03/25 00:11:40;;;;;;;26.88;9.75;;;4.40;99.90;;;;;;5121930;27;20035;-65
2022/03/25 00:14:06;;;;;;;24.48;9.43;;;4.30;99.90;;;;;;5122394;27;20037;-65
2022/03/25 00:16:32;;;;;;;23.10;9.15;;;4.30;99.90;;;;;;5115219;27;20027;-65
2022/03/25 00:18:58;;;;;;;20.25;9.05;;;4.30;99.90;;;;;;5127874;27;20050;-65
2022/03/25 00:21:23;;;;;;;27.80;10.88;;;4.30;99.90;;;;;;5122159;27;20051;-65
2022/03/25 00:23:49;;;;;;;23.55;9.00;;;4.20;99.90;;;;;;5128301;27;20031;-65
2022/03/25 00:26:15;;;;;;;22.48;8.68;;;4.30;99.90;;;;;;5118419;27;20035;-65
2022/03/25 00:28:40;;;;;;;24.67;9.95;;;4.20;99.90;;;;;;5104383;27;20755;-65
2022/03/25 00:31:07;;;;;;;36.55;10.82;;;4.20;99.90;;;;;;5123066;27;20036;-65
2022/03/25 00:33:34;;;;;;;33.10;9.98;;;4.50;99.90;;;;;;5119607;27;20019;-65
2022/03/25 00:36:01;;;;;;;24.40;9.40;;;4.60;99.90;;;;;;5101250;27;20030;-65
2022/03/25 00:38:27;;;;;;;26.77;10.18;;;4.60;99.90;;;;;;5127639;27;20079;-65
2022/03/25 00:40:53;;;;;;;26.52;9.43;;;4.60;99.90;;;;;;5123873;27;20053;-65
2022/03/25 00:43:20;;;;;;;23.13;10.35;;;4.50;99.90;;;;;;5106457;27;20967;-65
2022/03/25 00:45:46;;;;;;;31.35;10.25;;;4.50;99.90;;;;;;5118749;27;20037;-65
2022/03/25 00:48:15;;;;;;;26.42;9.13;;;4.40;99.90;;;;;;5119215;27;20098;-65
2022/03/25 00:50:41;;;;;;;32.13;11.75;;;4.50;99.90;;;;;;5115976;27;20035;-65
2022/03/25 00:53:07;;;;;;;28.58;11.02;;;4.60;99.90;;;;;;5114418;27;20032;-65
2022/03/25 00:55:34;;;;;;;24.15;10.25;;;4.50;99.90;;;;;;5122392;27;20037;-65
2022/03/25 00:58:00;;;;;;;21.73;9.95;;;4.40;99.90;;;;;;5122150;27;20030;-65
2022/03/25 01:00:26;;;;;;;22.55;9.18;;;4.40;99.90;;;;;;5113635;27;20112;-65
2022/03/25 01:02:51;;;;;;;35.88;11.65;;;4.20;99.90;;;;;;5099639;27;20019;-65
2022/03/25 01:05:19;;;;;;;29.10;11.38;;;4.10;99.90;;;;;;5118877;27;20027;-65
2022/03/25 01:07:45;;;;;;;24.08;10.00;;;4.20;99.90;;;;;;5113741;27;20388;-65
2022/03/25 01:10:11;;;;;;;30.45;8.40;;;4.10;99.90;;;;;;5114642;27;20106;-65
2022/03/25 01:12:37;;;;;;;23.70;10.20;;;4.30;99.90;;;;;;5121861;27;20066;-65
2022/03/25 01:15:03;;;;;;;25.92;8.77;;;4.60;99.90;;;;;;5115982;27;20059;-65
2022/03/25 01:17:29;;;;;;;22.88;8.60;;;4.60;99.90;;;;;;5128556;27;20027;-65
2022/03/25 01:19:55;;;;;;;17.13;7.75;;;4.30;99.90;;;;;;5121686;27;20031;-65
2022/03/25 01:22:21;;;;;;;20.67;8.68;;;4.10;99.90;;;;;;5123448;27;20022;-65
2022/03/25 01:24:47;;;;;;;29.25;9.50;;;4.10;99.90;;;;;;5118235;27;20450;-65
2022/03/25 01:27:12;;;;;;;28.67;11.30;;;3.90;99.90;;;;;;5108618;27;20106;-65
2022/03/25 01:29:38;;;;;;;28.13;10.50;;;3.80;99.90;;;;;;5124736;27;20055;-65
2022/03/25 01:32:06;;;;;;;26.27;8.77;;;3.60;99.90;;;;;;5133687;27;20507;-65
2022/03/25 01:34:33;;;;;;;20.88;9.05;;;3.50;99.90;;;;;;5128440;27;20018;-65
2022/03/25 01:36:59;;;;;;;27.05;9.15;;;3.50;99.90;;;;;;5130732;27;20110;-65
2022/03/25 01:39:24;;;;;;;23.85;9.95;;;3.40;99.90;;;;;;5131137;27;20538;-65
2022/03/25 01:41:50;;;;;;;29.92;9.13;;;3.50;99.90;;;;;;5135253;27;20023;-65
2022/03/25 01:44:27;;;;;;;27.42;9.38;;;3.60;99.90;;;;;;5136426;27;20523;-65
2022/03/25 01:46:54;;;;;;;28.38;9.23;;;3.60;99.90;;;;;;5133098;27;20026;-65
2022/03/25 01:49:20;;;;;;;24.23;10.55;;;3.50;99.90;;;;;;5119906;27;20054;-65
2022/03/25 01:51:50;;;;;;;25.90;9.60;;;3.40;99.90;;;;;;5136925;27;20038;-65
2022/03/25 01:54:40;;;;;;;20.75;7.03;;;3.30;99.90;;;;;;5132072;27;20033;-65
2022/03/25 01:57:08;;;;;;;20.40;7.97;;;3.50;99.90;;;;;;5130544;27;20118;-65
2022/03/25 01:59:34;;;;;;;27.38;10.68;;;3.50;99.90;;;;;;5130266;27;20403;-65
2022/03/25 02:02:01;;;;;;;22.88;9.25;;;3.40;99.90;;;;;;5134051;27;20023;-65
2022/03/25 02:04:28;;;;;;;23.90;7.90;;;3.40;99.90;;;;;;5122272;27;20023;-65
2022/03/25 02:06:54;;;;;;;22.40;8.93;;;3.40;99.90;;;;;;5134623;27;20059;-65
2022/03/25 02:09:20;;;;;;;21.17;8.77;;;3.30;99.90;;;;;;5133805;27;20061;-65
2022/03/25 02:11:45;;;;;;;33.80;10.23;;;3.20;99.90;;;;;;5129810;27;20023;-65
2022/03/25 02:14:12;;;;;;;28.10;10.60;;;3.10;99.90;;;;;;5129489;27;20113;-65
2022/03/25 02:16:40;;;;;;;21.05;7.82;;;3.10;99.90;;;;;;5130597;27;20020;-65
2022/03/25 02:19:08;;;;;;;20.73;8.60;;;3.10;99.90;;;;;;5129202;27;20056;-65
2022/03/25 02:21:38;;;;;;;26.05;10.88;;;3.00;99.90;;;;;;5129095;27;20368;-65
2022/03/25 02:24:06;;;;;;;28.53;11.17;;;3.00;99.90;;;;;;5131583;27;20051;-66
2022/03/25 02:26:33;;;;;;;26.58;9.95;;;2.90;99.90;;;;;;5128907;27;20029;-65
2022/03/25 02:29:03;;;;;;;24.88;10.95;;;2.80;99.90;;;;;;5132283;27;20078;-65
2022/03/25 02:31:28;;;;;;;24.17;9.55;;;2.80;99.90;;;;;;5132475;27;20035;-66
2022/03/25 02:33:58;;;;;;;38.40;10.75;;;2.80;99.90;;;;;;5136338;27;20027;-65
2022/03/25 02:36:23;;;;;;;24.55;10.05;;;2.70;99.90;;;;;;5138296;27;20577;-65
2022/03/25 02:38:49;;;;;;;21.48;8.95;;;2.70;99.90;;;;;;5135304;27;20076;-65
2022/03/25 02:41:15;;;;;;;31.13;11.02;;;2.70;99.90;;;;;;5135873;27;20060;-65
2022/03/25 02:43:40;;;;;;;27.70;9.77;;;2.70;99.90;;;;;;5138717;27;20027;-65
2022/03/25 02:46:06;;;;;;;28.33;10.18;;;2.60;99.90;;;;;;5139326;27;20041;-64
2022/03/25 02:48:33;;;;;;;22.20;9.95;;;2.70;99.90;;;;;;5137508;27;20027;-65
2022/03/25 02:50:59;;;;;;;26.42;9.68;;;2.70;99.90;;;;;;5140953;27;20051;-65
2022/03/25 02:53:24;;;;;;;29.23;10.45;;;2.60;99.90;;;;;;5124151;27;20034;-65
2022/03/25 02:55:50;;;;;;;17.63;7.57;;;2.60;99.90;;;;;;5144210;27;20018;-65
2022/03/25 02:58:17;;;;;;;15.48;7.65;;;2.50;99.90;;;;;;5133044;27;20027;-65
2022/03/25 03:00:43;;;;;;;24.17;9.45;;;2.40;99.90;;;;;;5135522;27;20030;-64
2022/03/25 03:03:09;;;;;;;22.40;7.85;;;2.60;99.90;;;;;;5141392;27;20023;-65
2022/03/25 03:05:34;;;;;;;28.55;8.57;;;2.60;99.90;;;;;;5138201;27;20075;-64
2022/03/25 03:08:00;;;;;;;26.27;10.63;;;2.60;99.90;;;;;;5141504;27;20800;-64
2022/03/25 03:10:26;;;;;;;29.60;10.05;;;2.50;99.90;;;;;;5132864;27;20031;-64
2022/03/25 03:12:53;;;;;;;27.60;9.43;;;2.60;99.90;;;;;;5138832;27;20429;-64
2022/03/25 03:15:19;;;;;;;19.40;8.65;;;2.50;99.90;;;;;;5136147;27;20065;-65
2022/03/25 03:17:46;;;;;;;19.50;8.38;;;2.50;99.90;;;;;;5137279;27;20031;-65
2022/03/25 03:20:13;;;;;;;25.38;9.23;;;2.40;99.90;;;;;;5134654;27;20043;-65
2022/03/25 03:22:39;;;;;;;25.17;9.50;;;2.40;99.90;;;;;;5136499;27;20054;-65
2022/03/25 03:25:05;;;;;;;25.20;8.80;;;2.40;99.90;;;;;;5134994;27;20019;-65
2022/03/25 03:27:31;;;;;;;29.27;8.68;;;2.30;99.90;;;;;;5139915;27;20072;-65
2022/03/25 03:29:58;;;;;;;15.60;7.80;;;2.20;99.90;;;;;;5129890;27;20147;-65
2022/03/25 03:32:25;;;;;;;22.27;8.45;;;2.20;99.90;;;;;;5130936;27;20076;-65
2022/03/25 03:34:52;;;;;;;31.73;9.85;;;2.10;99.90;;;;;;5135273;27;20031;-65
2022/03/25 03:37:18;;;;;;;14.82;7.80;;;2.00;99.90;;;;;;5138133;27;20533;-65
2022/03/25 03:39:43;;;;;;;16.20;8.60;;;2.00;99.90;;;;;;5136536;27;20031;-65
2022/03/25 03:42:09;;;;;;;18.83;7.55;;;2.00;99.90;;;;;;5143478;27;20373;-65
2022/03/25 03:44:36;;;;;;;24.02;8.38;;;1.90;99.90;;;;;;5132733;27;20022;-64
2022/03/25 03:47:03;;;;;;;21.25;9.20;;;1.80;99.90;;;;;;5138656;27;20966;-65
2022/03/25 03:49:29;;;;;;;24.77;9.38;;;1.80;99.90;;;;;;5137409;27;20054;-65
2022/03/25 03:51:55;;;;;;;18.08;7.30;;;;;;;;;;5135097;27;20054;-65
2022/03/25 03:54:20;;;;;;;20.08;8.43;;;1.90;99.90;;;;;;5137151;27;20038;-65
2022/03/25 03:56:46;;;;;;;35.00;8.05;;;1.90;99.90;;;;;;5133742;27;20035;-65
2022/03/25 03:59:12;;;;;;;22.95;10.27;;;1.80;99.90;;;;;;5139962;27;20027;-65
2022/03/25 04:01:37;;;;;;;24.17;9.88;;;1.90;99.90;;;;;;5135321;27;20102;-65
2022/03/25 04:04:03;;;;;;;16.70;7.00;;;1.90;99.90;;;;;;5141525;27;20909;-65
2022/03/25 04:06:29;;;;;;;23.92;8.80;;;1.80;99.90;;;;;;5136463;27;20022;-65
2022/03/25 04:08:56;;;;;;;32.42;9.52;;;1.80;99.90;;;;;;5135053;27;20024;-65
2022/03/25 04:11:21;;;;;;;12.93;6.38;;;1.80;99.90;;;;;;5140326;27;20018;-65
2022/03/25 04:13:47;;;;;;;16.58;7.53;;;1.70;99.90;;;;;;5138871;27;20027;-65
2022/03/25 04:16:13;;;;;;;18.27;8.30;;;1.70;99.90;;;;;;5134639;27;20118;-65
2022/03/25 04:18:39;;;;;;;21.80;7.68;;;1.80;99.90;;;;;;5135831;27;20539;-65
2022/03/25 04:21:05;;;;;;;25.60;8.55;;;2.10;99.90;;;;;;5139698;27;20035;-65
2022/03/25 04:23:31;;;;;;;20.38;8.48;;;2.00;99.90;;;;;;5136973;27;20019;-65
2022/03/25 04:25:57;;;;;;;26.50;8.05;;;1.90;99.90;;;;;;5136692;27;20031;-65
2022/03/25 04:28:23;;;;;;;23.88;8.70;;;1.90;99.90;;;;;;5139034;27;20035;-65
2022/03/25 04:30:48;;;;;;;20.88;9.60;;;1.90;99.90;;;;;;5133731;27;20403;-65
2022/03/25 04:33:14;;;;;;;19.08;8.07;;;1.70;99.90;;;;;;5139067;27;20103;-65
2022/03/25 04:35:40;;;;;;;21.95;6.47;;;1.60;99.90;;;;;;5136428;27;20027;-65
2022/03/25 04:38:06;;;;;;;24.10;9.10;;;1.60;99.90;;;;;;5134741;27;20023;-65
2022/03/25 04:40:32;;;;;;;25.52;9.25;;;1.50;99.90;;;;;;5138459;27;20104;-65
2022/03/25 04:43:00;;;;;;;20.80;7.45;;;1.40;99.90;;;;;;5138736;27;20015;-65
2022/03/25 04:45:26;;;;;;;27.52;9.07;;;1.40;99.90;;;;;;5134418;27;20061;-65
2022/03/25 04:47:52;;;;;;;15.02;7.50;;;1.50;99.90;;;;;;5144825;27;20584;-65
2022/03/25 04:50:18;;;;;;;17.65;8.35;;;1.40;99.90;;;;;;5143747;27;20026;-65
2022/03/25 04:52:45;;;;;;;22.35;8.63;;;1.40;99.90;;;;;;5136587;27;20027;-65
2022/03/25 04:55:11;;;;;;;23.15;7.15;;;1.30;99.90;;;;;;5138579;27;20023;-65
2022/03/25 04:57:38;;;;;;;17.00;7.55;;;1.40;99.90;;;;;;5137935;27;20027;-65
2022/03/25 05:00:04;;;;;;;24.20;8.82;;;1.40;99.90;;;;;;5117747;27;20029;-65
2022/03/25 05:02:30;;;;;;;22.17;8.27;;;1.40;99.90;;;;;;5136459;27;20030;-65
2022/03/25 05:04:55;;;;;;;27.42;8.20;;;1.40;99.90;;;;;;5137504;27;20432;-65
2022/03/25 05:07:22;;;;;;;19.35;6.97;;;1.50;99.90;;;;;;5133211;27;20028;-65
2022/03/25 05:09:47;;;;;;;28.92;8.32;;;1.50;99.90;;;;;;5136309;27;20023;-66
2022/03/25 05:12:13;;;;;;;19.55;6.97;;;1.50;99.90;;;;;;5118634;27;20019;-66
2022/03/25 05:14:39;;;;;;;22.38;7.70;;;1.50;99.90;;;;;;5134079;27;20029;-66
2022/03/25 05:17:05;;;;;;;23.52;7.95;;;1.50;99.90;;;;;;5138879;27;20027;-66
2022/03/25 05:19:31;;;;;;;19.95;8.25;;;1.50;99.90;;;;;;5115971;27;20079;-66
2022/03/25 05:21:57;;;;;;;17.33;7.28;;;1.40;99.90;;;;;;5133381;27;20034;-65
2022/03/25 05:24:23;;;;;;;20.77;7.05;;;1.40;99.90;;;;;;5134251;27;20023;-66
2022/03/25 05:26:49;;;;;;;23.10;7.40;;;1.50;99.90;;;;;;5139601;27;20031;-65
2022/03/25 05:29:15;;;;;;;20.58;7.22;;;1.80;99.90;;;;;;5137905;27;20448;-65
2022/03/25 05:31:41;;;;;;;19.80;7.35;;;1.80;99.90;;;;;;5139195;27;20049;-65
2022/03/25 05:34:07;;;;;;;17.92;7.38;;;1.80;99.90;;;;;;5136594;27;20492;-65
2022/03/25 05:36:33;;;;;;;24.83;8.57;;;1.70;99.90;;;;;;5112664;27;20502;-65
2022/03/25 05:39:00;;;;;;;23.65;8.68;;;1.60;99.90;;;;;;5141567;27;20109;-65
2022/03/25 05:41:27;;;;;;;18.55;8.48;;;1.60;99.90;;;;;;5136022;27;20031;-65
2022/03/25 05:43:53;;;;;;;23.42;7.53;;;1.60;99.90;;;;;;5136886;27;20018;-65
2022/03/25 05:46:19;;;;;;;14.45;7.82;;;1.60;99.90;;;;;;5132531;27;20032;-65
2022/03/25 05:48:45;;;;;;;20.10;7.65;;;1.60;99.90;;;;;;5134766;27;20023;-65
2022/03/25 05:51:11;;;;;;;23.40;8.07;;;1.60;99.90;;;;;;5138490;27;20106;-65
2022/03/25 05:53:37;;;;;;;19.38;7.28;;;1.70;99.90;;;;;;5131578;27;20523;-65
2022/03/25 05:56:04;;;;;;;22.55;8.30;;;1.70;99.90;;;;;;5134737;27;20030;-66
2022/03/25 05:58:33;;;;;;;23.90;9.02;;;1.80;99.90;;;;;;5123511;27;20126;-66
2022/03/25 06:00:59;;;;;;;25.17;9.95;;;1.80;99.90;;;;;;5138930;27;20847;-66
2022/03/25 06:03:25;;;;;;;21.17;7.72;;;1.90;99.90;;;;;;5139151;27;20026;-66
2022/03/25 06:05:50;;;;;;;23.83;8.77;;;2.00;99.90;;;;;;5141200;27;20018;-66
2022/03/25 06:08:16;;;;;;;22.80;7.57;;;2.00;99.90;;;;;;5117112;27;20486;-66
2022/03/25 06:10:42;;;;;;;21.00;8.18;;;2.10;99.90;;;;;;5141771;27;20031;-66
2022/03/25 06:13:07;;;;;;;16.35;6.82;;;2.20;99.90;;;;;;5141562;27;20119;-66
2022/03/25 06:15:33;;;;;;;20.85;8.15;;;2.20;99.90;;;;;;5140459;27;20023;-66
2022/03/25 06:17:59;;;;;;;25.15;8.15;;;2.40;99.90;;;;;;5139055;27;20023;-66
2022/03/25 06:20:24;;;;;;;27.90;9.38;;;2.50;99.90;;;;;;5140264;27;20114;-66
2022/03/25 06:22:50;;;;;;;16.67;7.40;;;2.60;99.90;;;;;;5122796;27;20019;-66
2022/03/25 06:25:17;;;;;;;34.50;8.77;;;2.70;99.90;;;;;;5116937;27;20037;-66
2022/03/25 06:27:55;;;;;;;22.50;8.90;;;2.80;99.90;;;;;;5135037;27;20086;-66
2022/03/25 06:30:24;;;;;;;19.75;8.48;;;2.90;99.90;;;;;;5139091;27;20053;-66
2022/03/25 06:32:50;;;;;;;23.33;9.43;;;3.10;99.90;;;;;;5138271;27;20554;-66
2022/03/25 06:35:16;;;;;;;20.48;6.78;;;3.20;99.90;;;;;;5137554;27;20475;-66
2022/03/25 06:37:42;;;;;;;21.15;7.40;;;3.30;99.90;;;;;;5138026;27;20019;-66
2022/03/25 06:40:09;;;;;;;26.05;8.68;;;3.40;99.90;;;;;;5132877;27;20023;-66
2022/03/25 06:42:35;;;;;;;29.48;9.65;;;3.50;99.90;;;;;;5136644;27;20027;-66
2022/03/25 06:45:02;;;;;;;20.75;8.68;;;3.60;99.90;;;;;;5139409;27;20034;-66
2022/03/25 06:47:28;;;;;;;32.72;8.45;;;3.80;99.90;;;;;;5137693;27;20016;-66
2022/03/25 06:49:54;;;;;;;23.90;8.95;;;3.90;99.90;;;;;;5144943;27;20037;-66
2022/03/25 06:52:21;;;;;;;22.60;7.85;;;4.10;99.90;;;;;;5138035;27;20023;-66
2022/03/25 06:54:46;;;;;;;24.95;11.88;;;4.20;99.90;;;;;;5130881;27;20035;-66
2022/03/25 06:57:12;;;;;;;23.70;9.02;;;4.40;99.90;;;;;;5136169;27;20046;-66
2022/03/25 06:59:39;;;;;;;28.15;9.77;;;4.40;99.90;;;;;;5135762;27;20423;-66
2022/03/25 07:02:06;;;;;;;28.63;11.23;;;4.60;99.90;;;;;;5135000;27;20497;-66
2022/03/25 07:04:32;;;;;;;28.90;10.98;;;4.80;99.90;;;;;;5136091;27;20031;-66
2022/03/25 07:06:59;;;;;;;29.63;10.30;;;5.00;99.90;;;;;;5136319;27;20027;-66
2022/03/25 07:09:24;;;;;;;31.83;10.75;;;5.20;99.90;;;;;;5136833;27;20046;-66
2022/03/25 07:11:50;;;;;;;32.13;10.63;;;5.30;99.90;;;;;;5140863;27;20073;-66
2022/03/25 07:14:16;;;;;;;20.80;8.77;;;5.40;99.90;;;;;;5115508;27;20557;-66
2022/03/25 07:16:42;;;;;;;28.92;11.05;;;5.50;99.90;;;;;;5133746;27;20026;-66
2022/03/25 07:19:09;;;;;;;30.67;11.43;;;5.70;99.90;;;;;;5131299;27;20034;-66
2022/03/25 07:21:35;;;;;;;24.77;10.20;;;5.80;99.90;;;;;;5132637;27;20025;-66
2022/03/25 07:24:01;;;;;;;26.38;11.02;;;6.00;99.90;;;;;;5134716;27;20026;-66
2022/03/25 07:26:26;;;;;;;25.58;9.45;;;6.20;99.90;;;;;;5117357;27;20027;-66
2022/03/25 07:28:52;;;;;;;31.23;10.27;;;6.40;99.90;;;;;;5137366;27;20417;-64
2022/03/25 07:31:18;;;;;;;26.20;11.15;;;6.50;99.90;;;;;;5136962;27;20027;-64
2022/03/25 07:33:44;;;;;;;25.38;12.02;;;6.80;99.90;;;;;;5131038;27;20121;-66
2022/03/25 07:36:10;;;;;;;26.88;10.07;;;7.00;99.90;;;;;;5116529;27;20509;-66
2022/03/25 07:38:36;;;;;;;27.58;11.10;;;7.10;99.90;;;;;;5136100;27;20023;-66
2022/03/25 07:41:03;;;;;;;28.23;10.45;;;7.20;99.90;;;;;;5132081;27;20084;-66
2022/03/25 07:43:32;;;;;;;25.75;11.05;;;7.40;99.90;;;;;;5132794;27;20072;-66
2022/03/25 07:45:58;;;;;;;25.90;10.27;;;7.50;99.90;;;;;;5104644;27;20118;-66
2022/03/25 07:48:24;;;;;;;23.67;9.60;;;7.70;99.90;;;;;;5129598;27;20114;-66
2022/03/25 07:50:49;;;;;;;26.90;11.10;;;7.80;99.90;;;;;;5133046;27;20023;-64
2022/03/25 07:53:16;;;;;;;26.10;10.00;;;8.00;99.90;;;;;;5130160;27;20526;-66
2022/03/25 07:55:44;;;;;;;43.42;13.23;;;8.20;99.90;;;;;;5128515;27;20114;-66
2022/03/25 07:58:10;;;;;;;41.25;12.18;;;8.30;99.90;;;;;;5134804;27;20053;-66
2022/03/25 08:00:35;;;;;;;23.58;9.95;;;8.40;99.90;;;;;;5129249;27;20059;-66
2022/03/25 08:03:01;;;;;;;27.30;12.32;;;8.60;99.90;;;;;;5133996;27;20042;-66
2022/03/25 08:05:27;;;;;;;25.20;8.82;;;8.70;99.90;;;;;;5129389;27;20043;-64
2022/03/25 08:07:54;;;;;;;31.65;11.25;;;9.00;99.90;;;;;;5131213;27;20732;-64
2022/03/25 08:10:25;;;;;;;32.60;9.63;;;9.20;99.90;;;;;;5132045;27;20019;-64
2022/03/25 08:12:51;;;;;;;39.95;12.20;;;9.40;99.90;;;;;;5114177;27;20033;-64
2022/03/25 08:15:18;;;;;;;25.85;10.35;;;9.60;99.90;;;;;;5133950;27;20027;-66
2022/03/25 08:17:55;;;;;;;24.38;8.55;;;9.70;99.90;;;;;;5132057;27;20485;-66
2022/03/25 08:20:29;;;;;;;30.08;9.63;;;9.90;99.90;;;;;;5137633;27;20093;-64
2022/03/25 08:22:56;;;;;;;23.98;10.05;;;10.10;99.90;;;;;;5132886;27;20031;-64
2022/03/25 08:28:07;;;;;;;28.25;9.63;;;10.30;99.90;;;;;;5131383;27;20042;-64
2022/03/25 08:30:33;;;;;;;23.42;9.05;;;10.60;99.90;;;;;;5139069;27;20051;-64
2022/03/25 08:33:01;;;;;;;26.02;10.65;;;10.90;99.90;;;;;;5136519;27;20087;-64
2022/03/25 08:35:27;;;;;;;33.88;10.38;;;11.20;99.90;;;;;;5132195;27;20506;-66
2022/03/25 08:37:55;;;;;;;20.40;8.25;;;11.40;99.90;;;;;;5132279;27;20039;-67
2022/03/25 08:40:22;;;;;;;29.65;9.93;;;12.20;99.90;;;;;;5133777;27;20023;-64
2022/03/25 08:42:48;;;;;;;28.20;9.88;;;12.90;99.20;;;;;;5130209;27;20021;-67
2022/03/25 08:45:15;;;;;;;28.02;9.98;;;12.30;98.50;;;;;;5129978;27;20320;-64
2022/03/25 08:47:41;;;;;;;26.35;9.60;;;12.20;99.00;;;;;;5132521;27;20045;-64
2022/03/25 08:50:09;;;;;;;22.73;8.93;;;12.60;98.50;;;;;;5114358;27;20122;-65
2022/03/25 08:52:35;;;;;;;26.27;8.75;;;14.20;97.60;;;;;;5132677;27;20454;-64
2022/03/25 08:55:01;;;;;;;25.15;9.30;;;15.10;94.40;;;;;;5110003;27;20031;-66
2022/03/25 08:57:27;;;;;;;20.70;7.47;;;15.20;93.60;;;;;;5131017;27;20046;-65
2022/03/25 08:59:53;;;;;;;27.98;9.40;;;15.90;91.10;;;;;;5134279;27;20038;-67
2022/03/25 09:02:18;;;;;;;26.38;8.40;;;15.10;91.20;;;;;;5130416;27;20027;-66
2022/03/25 09:04:46;;;;;;;23.77;9.55;;;15.00;90.30;;;;;;5135474;27;20035;-67
2022/03/25 09:07:12;;;;;;;24.55;8.45;;;14.60;91.20;;;;;;5132360;27;20037;-66
2022/03/25 09:09:38;;;;;;;24.65;8.30;;;14.30;91.80;;;;;;5129588;27;20027;-66
2022/03/25 09:12:04;;;;;;;23.85;7.93;;;15.10;90.10;;;;;;5135826;27;20035;-66
2022/03/25 09:14:29;;;;;;;20.92;6.53;;;15.30;90.40;;;;;;5133240;27;20026;-66
2022/03/25 09:16:55;;;;;;;20.77;5.95;;;15.60;89.60;;;;;;5129404;27;20027;-66
2022/03/25 09:19:21;;;;;;;25.27;7.00;;;16.50;84.70;;;;;;5127414;27;20649;-67
2022/03/25 09:21:46;;;;;;;25.70;7.82;;;17.70;82.60;;;;;;5125618;27;20826;-66
2022/03/25 09:24:12;;;;;;;22.67;6.90;;;16.90;79.30;;;;;;5110975;27;20024;-66
2022/03/25 09:26:38;;;;;;;20.33;7.22;;;17.50;79.40;;;;;;5132050;27;20034;-67
2022/03/25 09:29:04;;;;;;;22.52;8.43;;;17.80;79.70;;;;;;5126676;27;20046;-66
2022/03/25 09:31:30;;;;;;;23.73;7.85;;;18.00;77.20;;;;;;5126312;27;20117;-66
2022/03/25 09:35:08;;;;;;;19.67;6.22;;;16.90;76.30;;;;;;5130698;27;20034;-67
2022/03/25 09:36:41;;;;;;;19.33;6.40;;;17.50;77.90;;;;;;5128435;27;20058;-67
2022/03/25 09:39:08;;;;;;;19.98;6.28;;;17.80;75.10;;;;;;5133627;27;20066;-67
2022/03/25 09:41:34;;;;;;;20.38;7.13;;;18.70;74.70;;;;;;5134696;27;20513;-67
2022/03/25 09:44:00;;;;;;;18.58;6.45;;;19.10;70.60;;;;;;5134322;27;20022;-67
2022/03/25 09:46:26;;;;;;;23.85;6.50;;;18.20;71.50;;;;;;5128268;27;20118;-68
2022/03/25 09:48:51;;;;;;;21.98;6.78;;;18.70;71.10;;;;;;5126086;27;20080;-67
2022/03/25 09:51:17;;;;;;;18.10;5.93;;;18.30;69.30;;;;;;5127559;27;20508;-67
2022/03/25 09:53:44;;;;;;;23.92;5.78;;;17.20;69.40;;;;;;5129366;27;20035;-67
2022/03/25 09:56:10;;;;;;;19.35;6.55;;;17.10;72.70;;;;;;5128189;27;20027;-67
2022/03/25 09:58:36;;;;;;;19.50;6.90;;;17.00;72.60;;;;;;5126352;27;20030;-67
2022/03/25 10:01:02;;;;;;;18.73;5.28;;;16.70;72.40;;;;;;5127192;27;20045;-67
2022/03/25 10:03:37;;;;;;;21.23;6.50;;;16.90;72.70;;;;;;5133394;27;20023;-67
2022/03/25 10:06:10;;;;;;;21.85;6.57;;;17.20;72.20;;;;;;5131656;27;20095;-67
2022/03/25 10:11:18;;;;;;;20.20;6.85;;;18.80;67.50;;;;;;5098269;22;20047;-65
2022/03/25 10:13:44;;;;;;;23.20;8.23;;;17.60;70.30;;;;;;5057169;28;20028;-65
2022/03/25 10:16:30;;;;;;;18.40;6.93;;;16.60;71.70;;;;;;5072238;28;20024;-65
2022/03/25 10:18:57;;;;;;;19.05;7.68;;;16.60;72.10;;;;;;5076494;28;20059;-65
2022/03/25 10:21:24;;;;;;;18.42;6.47;;;17.00;71.80;;;;;;5078048;28;20095;-65
2022/03/25 10:23:51;;;;;;;27.83;9.40;;;17.70;70.80;;;;;;5080567;28;20024;-65
2022/03/25 10:26:17;;;;;;;23.00;7.88;;;16.90;71.60;;;;;;5078962;28;20737;-67
2022/03/25 10:28:44;;;;;;;17.30;6.78;;;16.80;71.30;;;;;;5059066;28;20067;-65
2022/03/25 10:31:16;;;;;;;19.45;6.15;;;18.70;70.10;;;;;;5083539;28;20012;-65
2022/03/25 10:33:57;;;;;;;27.33;7.93;;;19.40;69.10;;;;;;5072140;28;20047;-65
2022/03/25 10:39:11;;;;;;;21.15;7.38;;;17.10;69.60;;;;;;5178657;22;20071;-63
2022/03/25 10:41:41;;;;;;;19.52;7.22;;;17.80;69.00;;;;;;5073046;28;20238;-63
2022/03/25 10:44:09;;;;;;;21.75;6.85;;;17.50;68.60;;;;;;5074549;28;20601;-63
2022/03/25 10:46:36;;;;;;;18.85;6.93;;;18.30;70.90;;;;;;5077961;28;20024;-62
2022/03/25 10:49:05;;;;;;;17.35;6.70;;;18.60;70.00;;;;;;5061009;28;20127;-62
2022/03/25 10:51:32;;;;;;;21.85;7.40;;;17.70;71.10;;;;;;5078162;28;20047;-62
2022/03/25 10:54:00;;;;;;;17.13;6.40;;;17.90;70.40;;;;;;5071187;28;20028;-62
2022/03/25 10:56:26;;;;;;;21.35;7.07;;;19.40;68.50;;;;;;5079124;28;20027;-62
2022/03/25 10:58:53;;;;;;;18.60;7.10;;;19.00;67.70;;;;;;5079794;28;20024;-62
2022/03/25 11:01:19;;;;;;;19.83;7.07;;;18.70;68.30;;;;;;5065496;28;20016;-62
2022/03/25 11:03:50;;;;;;;19.52;6.15;;;17.90;70.00;;;;;;5084448;28;20043;-62
2022/03/25 11:06:17;;;;;;;20.02;5.82;;;19.20;70.10;;;;;;5080244;28;20027;-62
2022/03/25 11:08:43;;;;;;;21.88;5.78;;;20.30;66.40;;;;;;5076938;28;20183;-63
2022/03/25 11:11:09;;;;;;;17.92;5.38;;;19.80;67.50;;;;;;5077536;28;20025;-63
2022/03/25 11:13:35;;;;;;;16.38;5.25;;;20.50;67.00;;;;;;5068231;28;20759;-62
2022/03/25 11:16:02;;;;;;;16.58;5.57;;;21.60;66.60;;;;;;5081425;28;20032;-62
2022/03/25 11:18:28;;;;;;;17.63;5.63;;;20.80;65.60;;;;;;5080753;28;20035;-63
2022/03/25 11:20:58;;;;;;;15.77;4.35;;;21.60;64.40;;;;;;5080405;28;20090;-63
2022/03/25 11:23:38;;;;;;;21.23;6.40;;;22.10;62.50;;;;;;5080770;28;20031;-63
2022/03/25 11:26:08;;;;;;;16.08;5.85;;;21.20;61.70;;;;;;5078741;28;20298;-63
2022/03/25 11:28:34;;;;;;;15.53;5.23;;;22.40;61.90;;;;;;5077111;28;20036;-63
2022/03/25 11:31:10;;;;;;;15.75;5.32;;;20.90;62.20;;;;;;5076099;28;20263;-63
2022/03/25 11:34:09;;;;;;;19.25;6.80;;;20.20;65.00;;;;;;5073107;28;20032;-63
2022/03/25 11:36:40;;;;;;;17.98;6.28;;;19.70;66.10;;;;;;5059395;28;20040;-63
2022/03/25 11:39:27;;;;;;;12.63;4.95;;;20.00;67.20;;;;;;5054867;28;20136;-63
2022/03/25 11:42:01;;;;;;;18.88;5.63;;;21.50;64.00;;;;;;5059327;28;20036;-63
2022/03/25 11:44:26;;;;;;;22.52;6.65;;;21.70;62.90;;;;;;5053881;28;20106;-63
2022/03/25 11:47:01;;;;;;;23.83;6.93;;;20.70;62.90;;;;;;5059388;28;20495;-62
2022/03/25 11:49:30;;;;;;;18.90;6.47;;;20.90;64.70;;;;;;5057874;28;20483;-63
2022/03/25 11:51:56;;;;;;;16.60;6.85;;;22.10;62.60;;;;;;5055560;28;20028;-63
2022/03/25 11:54:40;;;;;;;22.50;7.88;;;21.30;62.30;;;;;;5058201;28;20037;-63
2022/03/25 11:57:20;;;;;;;17.77;6.00;;;19.10;65.10;;;;;;5059462;28;20028;-63
2022/03/25 11:59:55;;;;;;;16.02;5.18;;;20.20;66.10;;;;;;5052902;28;20025;-63
2022/03/25 12:02:38;;;;;;;17.75;5.95;;;20.90;64.40;;;;;;5057360;28;20047;-63
2022/03/25 12:05:25;;;;;;;17.15;6.10;;;22.80;60.80;;;;;;5052528;28;20112;-62
2022/03/25 12:08:25;;;;;;;22.15;6.40;;;21.90;61.50;;;;;;5052949;28;20031;-63
2022/03/25 12:10:52;;;;;;;16.52;6.35;;;21.40;61.80;;;;;;5060618;28;20085;-62
2022/03/25 12:13:19;;;;;;;20.38;6.68;;;21.20;60.50;;;;;;5054060;28;20021;-63
2022/03/25 12:15:49;;;;;;;21.75;5.90;;;20.90;62.90;;;;;;5053485;28;20028;-63
2022/03/25 12:18:46;;;;;;;17.80;6.28;;;21.90;63.00;;;;;;5063984;28;20020;-63
2022/03/25 12:21:33;;;;;;;16.75;5.82;;;23.00;61.00;;;;;;5055024;28;20089;-63
2022/03/25 12:24:01;;;;;;;16.05;5.72;;;23.30;58.00;;;;;;5057041;28;20068;-63
2022/03/25 12:26:36;;;;;;;19.30;5.97;;;22.80;59.70;;;;;;5056382;28;20641;-63
2022/03/25 12:29:03;;;;;;;16.50;5.88;;;23.30;56.90;;;;;;5057944;28;20032;-63
2022/03/25 12:31:29;;;;;;;19.08;6.57;;;21.70;59.90;;;;;;5058018;28;20390;-62
2022/03/25 12:34:05;;;;;;;15.10;5.10;;;20.40;60.20;;;;;;5053214;28;20558;-62
2022/03/25 12:36:55;;;;;;;20.02;6.35;;;20.20;61.30;;;;;;5056717;28;20058;-63
2022/03/25 12:39:21;;;;;;;19.67;6.32;;;21.80;62.00;;;;;;5076329;28;20916;-63
2022/03/25 12:41:51;;;;;;;20.65;6.22;;;23.50;58.30;;;;;;5082097;28;20493;-64
2022/03/25 12:44:29;;;;;;;21.88;6.97;;;23.80;57.20;;;;;;5077062;28;20031;-63
2022/03/25 12:47:02;;;;;;;18.45;6.80;;;21.90;59.00;;;;;;5078693;28;20036;-62
2022/03/25 12:49:29;;;;;;;16.83;6.45;;;22.10;59.50;;;;;;5074439;28;20102;-63
2022/03/25 12:51:56;;;;;;;18.70;7.60;;;22.90;59.40;;;;;;5078912;28;20128;-63